Time;durP1;ratioP1;P1;durP2;ratioP2;P2;SDS_P1;SDS_P2;PMS_P1;PMS_P2;Temp;Humidity;BMP_temperature;BMP_pressure;BME280_temperature;BME280_humidity;BME280_pressure;Samples;Min_cycle;Max_cycle;Signal;HPM_P1;HPM_P2
2021/12/25 00:00:13;;;;;;;7.73;6.93;;;7.90;89.80;;;;;;4967753;28;20585;-45
2021/12/25 00:02:40;;;;;;;7.77;6.20;;;8.00;89.80;;;;;;4963974;28;20446;-45
2021/12/25 00:05:09;;;;;;;6.63;5.93;;;7.90;89.80;;;;;;4963642;28;20510;-44
2021/12/25 00:07:35;;;;;;;6.60;6.00;;;7.90;89.80;;;;;;4978443;28;21159;-45
2021/12/25 00:10:05;;;;;;;6.27;5.77;;;7.90;89.80;;;;;;4964892;28;20472;-45
2021/12/25 00:12:32;;;;;;;6.93;6.23;;;7.80;89.80;;;;;;4964760;28;20502;-45
2021/12/25 00:15:00;;;;;;;7.43;6.00;;;7.80;89.80;;;;;;4961240;28;20474;-45
2021/12/25 00:17:27;;;;;;;6.23;5.30;;;7.80;89.80;;;;;;4964721;28;20484;-44
2021/12/25 00:19:54;;;;;;;7.47;5.10;;;7.80;89.80;;;;;;4968101;28;20482;-45
2021/12/25 00:22:21;;;;;;;6.40;4.97;;;7.80;89.80;;;;;;4966074;28;20474;-45
2021/12/25 00:24:49;;;;;;;9.07;6.20;;;7.80;89.80;;;;;;4968165;28;20481;-45
2021/12/25 00:35:15;;;;;;;6.03;5.30;;;7.70;89.80;;;;;;4935249;28;20831;-45
2021/12/25 00:37:42;;;;;;;8.60;5.67;;;7.70;89.80;;;;;;4965128;28;20481;-45
2021/12/25 00:40:10;;;;;;;7.33;5.53;;;7.70;89.80;;;;;;4975117;28;20493;-45
2021/12/25 00:42:37;;;;;;;6.10;5.50;;;7.70;89.80;;;;;;4960322;28;20468;-45
2021/12/25 00:45:04;;;;;;;6.00;5.13;;;7.70;89.80;;;;;;4961638;28;20482;-45
2021/12/25 00:47:31;;;;;;;7.27;5.80;;;7.60;89.80;;;;;;4961196;28;20450;-44
2021/12/25 00:49:58;;;;;;;6.37;5.70;;;7.60;89.80;;;;;;4966501;28;20462;-44
2021/12/25 00:52:24;;;;;;;8.90;6.10;;;7.60;89.80;;;;;;4966145;28;20455;-44
2021/12/25 00:54:51;;;;;;;8.50;6.13;;;7.60;89.80;;;;;;4964175;28;20466;-45
2021/12/25 00:57:18;;;;;;;7.53;6.33;;;7.60;89.80;;;;;;4963818;28;20466;-45
2021/12/25 00:59:45;;;;;;;8.77;6.30;;;7.60;89.80;;;;;;4968598;28;20482;-45
2021/12/25 01:02:11;;;;;;;6.03;5.40;;;7.60;89.80;;;;;;4959038;28;20477;-45
2021/12/25 01:04:39;;;;;;;8.00;7.20;;;7.60;89.80;;;;;;4979299;28;20964;-44
2021/12/25 01:07:06;;;;;;;7.77;6.40;;;7.60;89.80;;;;;;4974883;28;20482;-45
2021/12/25 01:09:33;;;;;;;7.07;6.20;;;7.60;89.80;;;;;;4960297;28;20459;-45
2021/12/25 01:12:00;;;;;;;8.07;6.43;;;7.60;89.80;;;;;;4963163;28;20935;-45
2021/12/25 01:14:35;;;;;;;6.83;5.97;;;7.60;89.80;;;;;;4964818;28;20465;-44
2021/12/25 01:30:28;;;;;;;6.97;6.27;;;7.50;89.80;;;;;;4963944;28;20450;-44
2021/12/25 01:38:51;;;;;;;7.13;6.43;;;7.50;89.80;;;;;;4961892;28;20445;-44
2021/12/25 01:49:00;;;;;;;8.87;6.67;;;7.50;89.80;;;;;;4959290;28;20458;-43
2021/12/25 01:51:27;;;;;;;9.30;6.70;;;7.50;89.80;;;;;;4965389;28;20481;-44
2021/12/25 01:53:54;;;;;;;8.00;6.10;;;7.50;89.80;;;;;;4964275;28;20471;-44
2021/12/25 01:56:22;;;;;;;9.40;7.50;;;7.50;89.80;;;;;;4964253;28;20465;-44
2021/12/25 01:58:49;;;;;;;7.90;6.57;;;7.50;89.80;;;;;;4964011;28;20462;-44
2021/12/25 02:01:16;;;;;;;8.07;7.27;;;7.50;89.80;;;;;;4964513;28;20516;-43
2021/12/25 02:03:43;;;;;;;8.93;7.47;;;7.50;89.80;;;;;;4965336;28;20479;-44
2021/12/25 02:06:12;;;;;;;7.50;6.80;;;7.50;89.80;;;;;;4978405;28;20458;-44
2021/12/25 02:08:41;;;;;;;7.43;6.67;;;7.50;89.80;;;;;;4961162;28;20529;-44
2021/12/25 02:11:10;;;;;;;12.17;7.73;;;7.50;89.80;;;;;;4965341;28;20850;-44
2021/12/25 02:13:39;;;;;;;9.30;7.07;;;7.50;89.80;;;;;;4960998;28;20461;-43
2021/12/25 02:16:12;;;;;;;9.70;7.83;;;7.50;89.80;;;;;;4961177;28;20465;-43
2021/12/25 02:21:37;;;;;;;7.93;6.40;;;7.60;89.80;;;;;;4964027;28;20494;-44
2021/12/25 02:24:07;;;;;;;7.93;7.03;;;7.60;89.80;;;;;;4979092;28;20546;-46
2021/12/25 02:26:37;;;;;;;8.87;7.73;;;7.60;89.80;;;;;;4961785;28;20983;-44
2021/12/25 02:29:04;;;;;;;9.60;7.43;;;7.60;89.80;;;;;;4963271;28;20542;-44
2021/12/25 02:31:30;;;;;;;6.77;6.13;;;7.70;89.80;;;;;;4963256;28;20979;-44
2021/12/25 02:33:57;;;;;;;9.80;7.37;;;7.70;89.80;;;;;;4961697;28;20463;-44
2021/12/25 02:36:24;;;;;;;9.40;7.57;;;7.70;89.80;;;;;;4961531;28;20480;-43
2021/12/25 02:38:51;;;;;;;6.80;6.00;;;7.60;89.80;;;;;;4960074;28;20472;-44
2021/12/25 02:41:19;;;;;;;7.97;7.00;;;7.60;89.80;;;;;;4960935;28;20502;-44
2021/12/25 02:43:46;;;;;;;6.50;5.90;;;7.50;89.80;;;;;;4963461;28;20477;-44
2021/12/25 02:46:14;;;;;;;7.27;5.77;;;7.60;89.80;;;;;;4960273;28;20470;-44
2021/12/25 02:48:42;;;;;;;7.37;5.60;;;7.50;89.80;;;;;;4964344;28;20462;-44
2021/12/25 02:51:11;;;;;;;5.87;5.30;;;7.50;89.80;;;;;;4953747;28;20465;-44
2021/12/25 02:53:39;;;;;;;8.33;6.10;;;7.50;89.80;;;;;;4959823;28;20470;-44
2021/12/25 02:56:07;;;;;;;7.30;6.00;;;7.50;89.80;;;;;;4961302;28;20473;-44
2021/12/25 02:58:34;;;;;;;7.33;6.10;;;7.50;89.80;;;;;;4964854;28;20477;-44
2021/12/25 03:01:05;;;;;;;7.07;6.33;;;7.50;89.80;;;;;;4968508;28;20500;-44
2021/12/25 03:03:32;;;;;;;7.67;6.37;;;7.50;89.80;;;;;;4965481;28;20474;-44
2021/12/25 03:06:03;;;;;;;6.67;6.00;;;7.50;89.80;;;;;;4966781;28;20887;-44
2021/12/25 03:08:29;;;;;;;8.23;6.10;;;7.50;89.80;;;;;;4982891;28;20496;-44
2021/12/25 03:10:58;;;;;;;7.90;6.13;;;7.50;89.80;;;;;;4966861;28;20474;-44
2021/12/25 03:15:59;;;;;;;7.07;6.40;;;7.50;89.80;;;;;;4965846;28;20971;-44
2021/12/25 03:18:33;;;;;;;7.07;6.20;;;7.40;89.80;;;;;;4967478;28;20909;-44
2021/12/25 03:21:02;;;;;;;6.37;5.70;;;7.50;89.80;;;;;;4963011;28;20500;-44
2021/12/25 03:23:31;;;;;;;7.70;6.00;;;7.40;89.80;;;;;;4967011;28;20478;-44
2021/12/25 03:26:00;;;;;;;5.73;5.23;;;7.50;89.80;;;;;;4980058;28;20462;-44
2021/12/25 03:28:30;;;;;;;7.53;5.60;;;7.50;89.80;;;;;;4964537;28;20975;-44
2021/12/25 03:31:01;;;;;;;6.23;5.63;;;7.50;89.80;;;;;;4965071;28;20473;-44
2021/12/25 03:33:28;;;;;;;9.07;6.97;;;7.50;89.80;;;;;;4965442;28;21003;-44
2021/12/25 03:35:55;;;;;;;7.50;6.23;;;7.50;89.80;;;;;;4964402;28;20482;-45
2021/12/25 03:38:23;;;;;;;5.60;5.10;;;7.40;89.80;;;;;;4982375;28;20480;-45
2021/12/25 03:40:51;;;;;;;7.40;6.60;;;7.40;89.80;;;;;;4962782;28;20998;-45
2021/12/25 03:43:19;;;;;;;6.50;5.80;;;7.40;89.80;;;;;;4964480;28;20839;-45
2021/12/25 03:45:47;;;;;;;6.23;5.60;;;7.40;89.80;;;;;;4963745;28;20462;-46
2021/12/25 03:48:31;;;;;;;9.20;6.77;;;7.40;89.80;;;;;;4965132;28;20996;-45
2021/12/25 03:59:09;;;;;;;7.03;5.77;;;7.50;89.80;;;;;;4968149;28;20839;-44
2021/12/25 04:04:14;;;;;;;6.60;6.00;;;7.40;89.80;;;;;;4964575;28;20470;-44
2021/12/25 04:06:47;;;;;;;8.07;5.87;;;7.40;89.80;;;;;;4963912;28;20468;-44
2021/12/25 04:09:26;;;;;;;9.80;6.70;;;7.40;89.80;;;;;;4966498;28;20465;-44
2021/12/25 04:11:55;;;;;;;6.13;5.50;;;7.40;89.80;;;;;;4966160;28;21138;-44
2021/12/25 04:14:22;;;;;;;7.77;7.00;;;7.40;89.80;;;;;;4967216;28;20490;-46
2021/12/25 04:16:49;;;;;;;9.70;6.90;;;7.40;89.80;;;;;;4965293;28;20476;-44
2021/12/25 04:19:17;;;;;;;7.33;5.60;;;7.40;89.80;;;;;;4965412;28;20461;-44
2021/12/25 04:21:58;;;;;;;6.40;5.80;;;7.40;89.80;;;;;;4978565;28;20506;-44
2021/12/25 04:24:27;;;;;;;7.33;6.20;;;7.40;89.80;;;;;;4966483;28;20465;-45
2021/12/25 04:26:53;;;;;;;8.67;7.33;;;7.40;89.80;;;;;;4972414;28;20462;-45
2021/12/25 05:01:51;;;;;;;14.10;11.00;;;7.50;89.80;;;;;;4962415;28;20486;-46
2021/12/25 05:04:31;;;;;;;12.10;10.03;;;7.50;89.80;;;;;;4959216;28;20829;-45
2021/12/25 05:06:58;;;;;;;12.33;10.43;;;7.50;89.80;;;;;;4980120;28;20473;-46
2021/12/25 05:09:25;;;;;;;13.80;10.73;;;7.50;89.80;;;;;;4964574;28;20458;-46
2021/12/25 05:11:52;;;;;;;12.47;10.67;;;7.50;89.80;;;;;;4961759;28;20466;-45
2021/12/25 05:14:18;;;;;;;13.80;10.27;;;7.60;89.80;;;;;;4960851;28;20474;-46
2021/12/25 05:16:45;;;;;;;15.60;9.57;;;7.60;89.80;;;;;;4978808;28;20462;-45
2021/12/25 05:19:12;;;;;;;15.27;9.97;;;7.60;89.80;;;;;;4963208;28;20473;-45
2021/12/25 05:21:39;;;;;;;16.00;13.20;;;7.60;89.80;;;;;;4965357;28;20950;-46
2021/12/25 05:24:06;;;;;;;13.53;10.77;;;7.70;89.80;;;;;;4977813;28;20994;-45
2021/12/25 05:26:33;;;;;;;17.50;11.60;;;7.70;89.80;;;;;;4966464;28;20469;-45
2021/12/25 05:29:01;;;;;;;11.57;10.20;;;7.70;89.80;;;;;;4960383;28;20466;-46
2021/12/25 05:31:30;;;;;;;10.63;9.53;;;7.70;89.80;;;;;;4963358;28;20468;-45
2021/12/25 05:33:58;;;;;;;11.13;10.00;;;7.70;89.80;;;;;;4973550;28;20469;-45
2021/12/25 05:36:27;;;;;;;10.60;9.30;;;7.70;89.80;;;;;;4961380;28;20476;-46
2021/12/25 05:38:58;;;;;;;10.37;9.10;;;7.60;89.80;;;;;;4961168;28;20474;-45
2021/12/25 05:41:27;;;;;;;13.87;9.97;;;7.60;89.80;;;;;;4960808;28;20991;-46
2021/12/25 05:43:54;;;;;;;12.83;9.53;;;7.70;89.80;;;;;;4961614;28;20473;-45
2021/12/25 05:46:22;;;;;;;13.17;10.33;;;7.70;89.80;;;;;;4964996;28;20492;-45
2021/12/25 05:48:50;;;;;;;11.73;9.83;;;7.70;89.80;;;;;;4965000;28;20498;-46
2021/12/25 05:51:18;;;;;;;17.57;10.90;;;7.70;89.80;;;;;;4961169;28;20906;-45
2021/12/25 05:53:46;;;;;;;13.47;10.90;;;7.60;89.80;;;;;;4959309;28;20839;-46
2021/12/25 05:56:13;;;;;;;16.07;11.00;;;7.60;89.80;;;;;;4958656;28;20835;-45
2021/12/25 05:58:40;;;;;;;15.27;10.53;;;7.60;89.80;;;;;;4965184;28;20465;-45
2021/12/25 06:01:07;;;;;;;14.43;9.43;;;7.60;89.80;;;;;;4965905;28;20494;-45
2021/12/25 06:03:34;;;;;;;13.03;9.77;;;7.60;89.80;;;;;;4966543;28;20956;-46
2021/12/25 06:06:01;;;;;;;14.47;9.57;;;7.60;89.80;;;;;;4963900;28;20458;-45
2021/12/25 06:08:28;;;;;;;13.10;10.63;;;7.60;89.80;;;;;;4977823;28;20553;-45
2021/12/25 06:10:56;;;;;;;16.20;12.00;;;7.50;89.80;;;;;;4966370;28;20466;-46
2021/12/25 06:13:23;;;;;;;12.53;9.77;;;7.50;89.80;;;;;;4974784;28;20471;-46
2021/12/25 06:15:52;;;;;;;17.43;11.70;;;7.50;89.80;;;;;;4965422;28;20458;-46
2021/12/25 06:18:18;;;;;;;15.60;11.43;;;7.50;89.80;;;;;;4962066;28;20566;-45
2021/12/25 06:20:45;;;;;;;14.70;9.70;;;7.50;89.80;;;;;;4958027;28;20494;-45
2021/12/25 06:23:12;;;;;;;16.00;10.70;;;7.50;89.80;;;;;;4960724;28;20573;-46
2021/12/25 06:25:39;;;;;;;13.23;9.20;;;7.40;89.80;;;;;;4964857;28;20553;-46
2021/12/25 06:28:07;;;;;;;16.53;9.67;;;7.40;89.80;;;;;;4961765;28;20818;-46
2021/12/25 06:30:34;;;;;;;14.40;10.27;;;7.40;89.80;;;;;;4960340;28;20455;-45
2021/12/25 06:33:01;;;;;;;15.60;10.80;;;7.40;89.80;;;;;;4965696;28;20516;-45
2021/12/25 06:35:28;;;;;;;17.07;10.53;;;7.40;89.80;;;;;;4961259;28;20468;-45
2021/12/25 06:37:55;;;;;;;17.03;10.40;;;7.40;89.80;;;;;;4963680;28;20469;-45
2021/12/25 06:40:26;;;;;;;14.50;9.37;;;7.30;89.80;;;;;;4963522;28;20470;-46
2021/12/25 06:42:53;;;;;;;15.40;8.73;;;7.30;89.80;;;;;;4968481;28;20476;-45
2021/12/25 06:45:20;;;;;;;15.57;10.00;;;7.30;89.80;;;;;;4963769;28;20557;-45
2021/12/25 06:47:47;;;;;;;13.60;10.30;;;7.30;89.80;;;;;;4957430;28;20462;-46
2021/12/25 06:50:14;;;;;;;14.17;9.40;;;7.20;89.80;;;;;;4963779;28;20914;-45
2021/12/25 06:52:45;;;;;;;12.27;9.33;;;7.30;89.80;;;;;;4968579;28;20473;-45
2021/12/25 06:55:13;;;;;;;15.17;9.37;;;7.20;89.80;;;;;;4961845;28;20466;-46
2021/12/25 06:57:51;;;;;;;12.67;8.30;;;7.20;89.80;;;;;;4962147;28;20880;-45
2021/12/25 07:00:18;;;;;;;11.60;9.60;;;7.30;89.80;;;;;;4965504;28;20466;-45
2021/12/25 07:02:45;;;;;;;10.10;7.90;;;7.20;89.80;;;;;;4966277;28;20592;-45
2021/12/25 07:05:12;;;;;;;12.13;8.70;;;7.20;89.80;;;;;;4961998;28;20537;-45
2021/12/25 07:07:39;;;;;;;15.53;9.43;;;7.20;89.80;;;;;;4962856;28;20520;-46
2021/12/25 07:10:06;;;;;;;12.70;8.80;;;7.20;89.80;;;;;;4950783;28;20466;-46
2021/12/25 07:12:37;;;;;;;14.20;8.27;;;7.10;89.80;;;;;;4966449;28;20508;-46
2021/12/25 07:15:06;;;;;;;9.27;6.80;;;7.00;89.80;;;;;;4965349;28;20959;-45
2021/12/25 07:17:33;;;;;;;9.70;6.80;;;7.10;89.80;;;;;;4966591;28;20534;-45
2021/12/25 07:20:00;;;;;;;8.67;5.70;;;7.10;89.80;;;;;;4981538;28;20449;-45
2021/12/25 07:22:26;;;;;;;8.00;6.50;;;7.00;89.80;;;;;;4967368;28;20504;-45
2021/12/25 07:24:53;;;;;;;6.93;5.77;;;7.00;89.80;;;;;;4962933;28;20949;-45
2021/12/25 07:27:20;;;;;;;7.43;6.73;;;6.90;89.80;;;;;;4965987;28;20464;-45
2021/12/25 07:29:47;;;;;;;9.40;6.17;;;6.90;89.80;;;;;;4967098;28;20458;-45
2021/12/25 07:32:14;;;;;;;7.47;6.23;;;6.90;89.80;;;;;;4965532;28;20461;-45
2021/12/25 07:34:41;;;;;;;8.27;6.03;;;6.80;89.80;;;;;;4964221;28;20447;-45
2021/12/25 07:37:08;;;;;;;8.67;6.20;;;6.80;89.80;;;;;;4965421;28;20458;-45
2021/12/25 07:39:34;;;;;;;8.50;5.40;;;6.80;89.80;;;;;;4964375;28;20466;-45
2021/12/25 07:42:01;;;;;;;7.37;5.80;;;6.90;89.80;;;;;;4964467;28;20490;-45
2021/12/25 07:44:28;;;;;;;9.40;5.87;;;6.90;89.80;;;;;;4965194;28;20490;-45
2021/12/25 07:46:55;;;;;;;4.97;4.00;;;6.90;89.80;;;;;;4967336;28;20964;-46
2021/12/25 07:49:22;;;;;;;5.80;5.10;;;6.80;89.80;;;;;;4966308;28;20468;-45
2021/12/25 07:51:49;;;;;;;6.60;5.20;;;6.80;89.80;;;;;;4969858;28;20506;-45
2021/12/25 07:54:16;;;;;;;6.60;4.97;;;6.80;89.80;;;;;;4963999;28;20471;-45
2021/12/25 07:56:44;;;;;;;5.77;4.93;;;6.80;89.80;;;;;;4979088;28;20674;-45
2021/12/25 07:59:11;;;;;;;4.90;4.40;;;6.80;89.80;;;;;;4962432;28;20955;-45
2021/12/25 08:01:37;;;;;;;4.87;4.40;;;6.80;89.80;;;;;;4967000;28;20520;-45
2021/12/25 08:04:04;;;;;;;5.87;4.33;;;6.80;89.70;;;;;;4964528;28;20973;-45
2021/12/25 08:06:32;;;;;;;5.23;4.67;;;6.70;89.70;;;;;;4961341;28;20839;-45
2021/12/25 08:09:01;;;;;;;6.20;4.17;;;6.80;89.80;;;;;;4968853;28;20836;-45
2021/12/25 08:11:30;;;;;;;4.33;3.93;;;6.80;89.70;;;;;;4981797;28;20462;-45
2021/12/25 08:13:57;;;;;;;5.50;4.73;;;6.80;89.70;;;;;;4965391;28;20949;-45
2021/12/25 08:16:24;;;;;;;5.40;3.83;;;6.80;89.60;;;;;;4983408;28;20470;-45
2021/12/25 08:18:51;;;;;;;4.00;3.43;;;6.70;89.50;;;;;;4960968;28;20454;-45
2021/12/25 08:21:18;;;;;;;4.30;3.90;;;6.70;89.50;;;;;;4965179;28;20506;-45
2021/12/25 08:23:45;;;;;;;4.20;3.57;;;6.70;89.50;;;;;;4964839;28;20465;-45
2021/12/25 08:26:15;;;;;;;4.40;3.27;;;6.70;89.50;;;;;;4966388;28;20545;-45
2021/12/25 08:28:42;;;;;;;4.13;3.50;;;6.80;89.40;;;;;;4964587;28;20466;-45
2021/12/25 08:31:08;;;;;;;4.10;3.03;;;6.80;89.30;;;;;;4966110;28;20466;-45
2021/12/25 08:33:35;;;;;;;3.70;3.17;;;6.80;89.40;;;;;;4965930;28;20525;-45
2021/12/25 08:36:03;;;;;;;3.77;3.40;;;6.70;89.10;;;;;;4963577;28;20856;-45
2021/12/25 08:38:30;;;;;;;7.07;3.03;;;6.70;89.20;;;;;;4958176;28;20467;-45
2021/12/25 08:40:57;;;;;;;3.03;2.60;;;6.70;89.10;;;;;;4963220;28;20475;-44
2021/12/25 08:43:25;;;;;;;4.90;3.67;;;6.70;88.90;;;;;;4964938;28;21044;-45
2021/12/25 08:46:14;;;;;;;2.90;2.57;;;6.70;89.00;;;;;;4961910;28;20481;-45
2021/12/25 08:48:41;;;;;;;4.00;3.17;;;6.70;88.90;;;;;;4959662;28;20538;-45
2021/12/25 08:51:10;;;;;;;4.37;3.07;;;6.80;88.80;;;;;;4965909;28;20798;-45
2021/12/25 08:53:37;;;;;;;6.23;3.60;;;6.70;88.70;;;;;;4963182;28;20466;-45
2021/12/25 08:56:04;;;;;;;4.40;4.00;;;6.70;88.90;;;;;;4962662;28;20470;-44
2021/12/25 08:58:32;;;;;;;4.23;2.77;;;6.60;89.00;;;;;;4962666;28;20465;-45
2021/12/25 09:01:02;;;;;;;3.37;2.87;;;6.60;88.80;;;;;;4961950;28;20464;-45
2021/12/25 09:03:30;;;;;;;2.90;2.20;;;6.60;88.70;;;;;;4960652;28;20516;-46
2021/12/25 09:06:01;;;;;;;2.70;2.50;;;6.50;88.50;;;;;;4961302;28;20482;-45
2021/12/25 09:08:28;;;;;;;3.20;2.60;;;6.50;88.70;;;;;;4961955;28;20493;-45
2021/12/25 09:10:55;;;;;;;2.83;2.60;;;6.50;88.90;;;;;;4961261;28;20922;-45
2021/12/25 09:13:22;;;;;;;4.17;3.77;;;6.50;88.90;;;;;;4963777;28;20471;-45
2021/12/25 09:15:50;;;;;;;2.90;2.60;;;6.50;89.00;;;;;;4961800;28;20454;-45
2021/12/25 09:18:17;;;;;;;2.60;2.40;;;6.50;89.00;;;;;;4952439;28;21054;-44
2021/12/25 09:20:44;;;;;;;4.57;3.23;;;6.50;89.10;;;;;;4964259;28;20505;-45
2021/12/25 09:23:11;;;;;;;4.20;3.90;;;6.60;89.20;;;;;;4960685;28;20521;-45
2021/12/25 09:25:39;;;;;;;3.93;3.27;;;6.50;89.40;;;;;;4961263;28;20456;-44
2021/12/25 09:28:05;;;;;;;4.50;2.40;;;6.60;89.30;;;;;;4963125;28;20473;-45
2021/12/25 09:30:34;;;;;;;3.23;2.60;;;6.60;89.20;;;;;;4973790;28;20459;-45
2021/12/25 09:33:01;;;;;;;3.67;3.00;;;6.60;89.30;;;;;;4962810;28;20560;-44
2021/12/25 09:35:28;;;;;;;2.67;2.40;;;6.60;89.40;;;;;;4978172;28;20466;-44
2021/12/25 09:37:55;;;;;;;2.10;1.97;;;6.60;89.50;;;;;;4963793;28;20938;-45
2021/12/25 09:40:21;;;;;;;2.27;1.83;;;6.60;89.60;;;;;;4962205;28;20518;-44
2021/12/25 09:42:48;;;;;;;3.70;3.03;;;6.60;89.50;;;;;;4963467;28;20494;-45
2021/12/25 09:45:15;;;;;;;2.77;2.17;;;6.60;89.50;;;;;;4961992;28;20497;-45
2021/12/25 09:47:42;;;;;;;2.30;2.10;;;6.60;89.50;;;;;;4962290;28;20476;-45
2021/12/25 09:50:10;;;;;;;2.50;2.30;;;6.60;89.80;;;;;;4965614;28;20844;-45
2021/12/25 09:52:38;;;;;;;2.70;2.27;;;6.60;89.80;;;;;;4962176;28;20478;-45
2021/12/25 09:55:06;;;;;;;3.77;2.87;;;6.60;89.80;;;;;;4965308;28;20494;-45
2021/12/25 09:57:35;;;;;;;4.00;3.60;;;6.60;89.80;;;;;;4961633;28;20522;-44
2021/12/25 10:00:15;;;;;;;1.83;1.73;;;6.60;89.80;;;;;;4955626;28;20473;-45
2021/12/25 10:02:49;;;;;;;1.83;1.70;;;6.70;89.80;;;;;;4963513;28;20578;-45
2021/12/25 10:05:26;;;;;;;3.50;3.20;;;6.70;89.60;;;;;;4962644;28;20471;-45
2021/12/25 10:08:11;;;;;;;2.30;2.10;;;6.70;89.70;;;;;;4961113;28;20466;-45
2021/12/25 10:10:47;;;;;;;3.47;3.10;;;6.70;89.60;;;;;;4959729;28;20466;-44
2021/12/25 10:13:25;;;;;;;3.17;2.90;;;6.70;89.30;;;;;;4964337;28;20467;-45
2021/12/25 10:15:54;;;;;;;1.60;1.50;;;6.70;89.20;;;;;;4960660;28;21138;-45
2021/12/25 10:18:33;;;;;;;1.40;1.30;;;6.70;88.50;;;;;;4978451;28;20470;-45
2021/12/25 10:21:36;;;;;;;1.90;1.73;;;6.70;88.10;;;;;;4957087;28;20569;-45
2021/12/25 10:24:07;;;;;;;1.63;1.37;;;6.60;88.40;;;;;;4942523;28;20475;-45
2021/12/25 10:26:36;;;;;;;0.93;0.90;;;6.60;88.90;;;;;;4957260;28;20986;-45
2021/12/25 10:29:26;;;;;;;0.87;0.80;;;6.60;88.70;;;;;;4960401;28;20467;-44
2021/12/25 10:31:55;;;;;;;2.17;2.00;;;6.60;88.50;;;;;;4958385;28;20466;-45
2021/12/25 10:34:25;;;;;;;2.20;1.53;;;6.60;87.90;;;;;;4958778;28;20898;-46
2021/12/25 10:36:52;;;;;;;2.60;2.40;;;6.60;87.80;;;;;;4948222;28;20987;-46
2021/12/25 10:39:25;;;;;;;1.97;1.60;;;6.50;87.80;;;;;;4958490;28;20535;-45
2021/12/25 10:41:57;;;;;;;2.00;1.80;;;6.50;87.90;;;;;;4960560;28;20501;-45
2021/12/25 10:44:32;;;;;;;3.33;1.60;;;6.50;87.80;;;;;;4963760;28;20462;-45
2021/12/25 10:47:01;;;;;;;1.03;1.03;;;6.50;87.50;;;;;;4963798;28;20469;-45
2021/12/25 10:49:41;;;;;;;1.10;1.00;;;6.40;87.50;;;;;;4960114;28;20470;-45
2021/12/25 10:52:39;;;;;;;3.27;2.97;;;6.50;87.70;;;;;;4964683;28;20450;-45
2021/12/25 10:55:18;;;;;;;2.00;1.80;;;6.40;87.20;;;;;;4954407;28;20468;-45
2021/12/25 10:57:45;;;;;;;1.43;1.33;;;6.40;87.30;;;;;;4964966;28;20462;-46
2021/12/25 11:00:26;;;;;;;1.50;1.40;;;6.40;87.60;;;;;;4960049;28;20459;-45
2021/12/25 11:03:00;;;;;;;1.20;1.10;;;6.40;87.20;;;;;;4961976;28;20487;-44
2021/12/25 11:05:31;;;;;;;3.53;1.53;;;6.30;86.20;;;;;;4972786;28;20467;-45
2021/12/25 11:08:17;;;;;;;1.67;1.57;;;6.30;86.30;;;;;;4967153;28;20453;-45
2021/12/25 11:10:55;;;;;;;1.50;1.40;;;6.30;86.30;;;;;;4948550;28;20458;-44
2021/12/25 11:13:26;;;;;;;1.90;1.80;;;6.20;85.50;;;;;;4954656;28;20473;-45
2021/12/25 11:16:02;;;;;;;1.50;1.40;;;6.10;85.90;;;;;;4961929;28;20455;-45
2021/12/25 11:18:30;;;;;;;2.33;2.07;;;6.10;86.60;;;;;;4965547;28;20500;-45
2021/12/25 11:20:59;;;;;;;4.53;3.00;;;6.10;86.40;;;;;;4966433;28;20469;-45
2021/12/25 11:23:28;;;;;;;2.87;2.57;;;6.10;86.10;;;;;;4966586;28;20530;-45
2021/12/25 11:25:56;;;;;;;2.43;1.47;;;6.10;86.10;;;;;;4979912;28;20444;-45
2021/12/25 11:28:23;;;;;;;2.40;2.13;;;6.10;86.30;;;;;;4966606;28;20454;-44
2021/12/25 11:30:50;;;;;;;1.73;1.63;;;6.10;85.70;;;;;;4968088;28;20450;-45
2021/12/25 11:33:17;;;;;;;2.00;1.80;;;6.10;85.20;;;;;;4965899;28;20473;-45
2021/12/25 11:35:44;;;;;;;1.60;1.50;;;5.90;85.10;;;;;;4964985;28;20795;-45
2021/12/25 11:38:11;;;;;;;2.60;2.20;;;5.90;85.40;;;;;;4966846;28;20454;-45
2021/12/25 11:40:46;;;;;;;3.17;1.77;;;5.90;85.10;;;;;;4964375;28;20501;-45
2021/12/25 11:43:14;;;;;;;2.60;2.17;;;5.80;85.30;;;;;;4964823;28;20524;-45
2021/12/25 11:45:42;;;;;;;2.00;1.80;;;5.80;85.30;;;;;;4965483;28;20457;-45
2021/12/25 11:48:19;;;;;;;2.07;1.97;;;5.80;85.30;;;;;;4963712;28;20502;-45
2021/12/25 11:50:48;;;;;;;2.20;1.93;;;5.80;84.90;;;;;;4963400;28;20462;-46
2021/12/25 11:53:41;;;;;;;2.40;2.20;;;5.80;85.30;;;;;;4967129;28;20985;-46
2021/12/25 11:56:26;;;;;;;1.70;1.60;;;5.80;84.40;;;;;;4966592;28;20801;-45
2021/12/25 11:59:00;;;;;;;1.27;1.23;;;5.80;84.20;;;;;;4962847;28;20837;-45
2021/12/25 12:01:42;;;;;;;1.63;1.53;;;5.70;83.80;;;;;;4965570;28;20463;-46
2021/12/25 12:04:27;;;;;;;2.27;1.77;;;5.70;83.90;;;;;;4964672;28;20494;-45
2021/12/25 12:06:56;;;;;;;1.60;1.50;;;5.60;83.80;;;;;;4962736;28;20461;-45
2021/12/25 12:09:29;;;;;;;1.57;1.47;;;5.50;83.70;;;;;;4967581;28;20814;-44
2021/12/25 12:12:05;;;;;;;2.00;1.77;;;5.50;84.10;;;;;;4962016;28;20469;-44
2021/12/25 12:14:32;;;;;;;1.70;1.60;;;5.40;84.00;;;;;;4962331;28;20462;-45
2021/12/25 12:17:04;;;;;;;1.80;1.70;;;5.40;84.70;;;;;;4966102;28;20823;-44
2021/12/25 12:19:36;;;;;;;1.83;1.47;;;5.40;84.40;;;;;;4965428;28;20951;-45
2021/12/25 12:22:15;;;;;;;2.20;2.10;;;5.30;84.20;;;;;;4962212;28;20478;-45
2021/12/25 12:25:02;;;;;;;2.97;2.30;;;5.20;83.70;;;;;;4964905;28;20450;-45
2021/12/25 12:27:54;;;;;;;1.50;1.40;;;5.20;84.10;;;;;;4965316;28;20446;-45
2021/12/25 12:30:46;;;;;;;1.73;1.63;;;5.20;84.60;;;;;;4962597;28;20466;-45
2021/12/25 12:33:17;;;;;;;4.07;2.10;;;5.20;84.90;;;;;;4962417;28;20455;-46
2021/12/25 12:35:54;;;;;;;2.00;1.90;;;5.20;84.70;;;;;;4978807;28;20537;-44
2021/12/25 12:38:43;;;;;;;2.17;1.97;;;5.20;84.40;;;;;;4977020;28;20473;-45
2021/12/25 12:41:11;;;;;;;2.70;2.00;;;5.10;83.60;;;;;;4981215;28;21152;-45
2021/12/25 12:43:52;;;;;;;1.53;1.43;;;5.00;83.90;;;;;;4965066;28;21033;-44
2021/12/25 12:46:20;;;;;;;1.93;1.83;;;5.10;84.80;;;;;;4966049;28;20967;-44
2021/12/25 12:49:05;;;;;;;2.10;2.00;;;5.10;85.50;;;;;;4976672;28;20961;-46
2021/12/25 12:51:34;;;;;;;2.20;2.07;;;5.10;85.90;;;;;;4968346;28;20468;-46
2021/12/25 12:54:01;;;;;;;2.67;2.30;;;5.10;86.00;;;;;;4961166;28;20513;-45
2021/12/25 12:56:29;;;;;;;2.33;2.13;;;5.10;86.40;;;;;;4965061;28;20484;-45
2021/12/25 12:59:01;;;;;;;2.37;2.00;;;5.10;86.00;;;;;;4973181;28;20462;-45
2021/12/25 13:01:28;;;;;;;2.50;2.30;;;5.10;85.40;;;;;;4983153;28;20466;-45
2021/12/25 13:03:59;;;;;;;2.20;2.10;;;5.10;85.50;;;;;;4977384;28;20597;-45
2021/12/25 13:06:28;;;;;;;2.40;2.20;;;5.10;85.20;;;;;;4946089;28;20455;-46
2021/12/25 13:08:59;;;;;;;2.10;2.00;;;5.00;85.00;;;;;;4961732;28;20458;-45
2021/12/25 13:11:31;;;;;;;3.87;3.00;;;4.90;84.90;;;;;;4965643;28;20960;-45
2021/12/25 13:14:00;;;;;;;2.23;2.13;;;4.90;85.10;;;;;;4963961;28;20582;-45
2021/12/25 13:16:39;;;;;;;3.03;2.13;;;4.90;85.10;;;;;;4964336;28;20466;-46
2021/12/25 13:19:07;;;;;;;3.73;2.30;;;4.90;85.80;;;;;;4961948;28;20512;-45
2021/12/25 13:21:36;;;;;;;1.97;1.87;;;4.80;85.40;;;;;;4962638;28;20549;-45
2021/12/25 13:24:13;;;;;;;2.20;2.00;;;4.80;85.30;;;;;;4962729;28;20490;-45
2021/12/25 13:26:47;;;;;;;2.37;2.17;;;4.90;85.60;;;;;;4962274;28;20469;-45
2021/12/25 13:29:19;;;;;;;2.33;2.00;;;4.90;85.80;;;;;;4961070;28;20462;-45
2021/12/25 13:31:46;;;;;;;2.93;2.73;;;4.90;85.60;;;;;;4963236;28;20955;-45
2021/12/25 13:34:18;;;;;;;2.70;2.30;;;4.80;86.00;;;;;;4964347;28;20793;-45
2021/12/25 13:36:54;;;;;;;4.07;2.83;;;4.80;85.70;;;;;;4974752;28;20465;-45
2021/12/25 13:39:25;;;;;;;3.70;3.40;;;4.80;85.70;;;;;;4963608;28;20485;-44
2021/12/25 13:42:12;;;;;;;2.40;2.27;;;4.80;85.90;;;;;;4959491;28;20462;-45
2021/12/25 13:44:44;;;;;;;2.20;2.00;;;4.80;85.70;;;;;;4959660;28;20886;-45
2021/12/25 13:47:14;;;;;;;2.70;2.50;;;4.80;85.80;;;;;;4963208;28;20474;-44
2021/12/25 13:49:43;;;;;;;2.77;2.23;;;4.80;86.00;;;;;;4962775;28;20643;-45
2021/12/25 13:52:21;;;;;;;3.00;2.80;;;4.80;85.90;;;;;;4979468;28;20955;-46
2021/12/25 13:54:55;;;;;;;2.80;2.60;;;4.70;85.90;;;;;;4961024;28;20525;-45
2021/12/25 13:57:24;;;;;;;2.53;2.33;;;4.70;85.90;;;;;;4957836;28;21285;-45
2021/12/25 13:59:54;;;;;;;2.40;2.20;;;4.70;85.80;;;;;;4960199;28;20989;-45
2021/12/25 14:02:23;;;;;;;2.27;2.07;;;4.70;85.60;;;;;;4960929;28;20465;-45
2021/12/25 14:04:53;;;;;;;3.77;3.07;;;4.70;85.40;;;;;;4957660;28;20521;-45
2021/12/25 14:07:26;;;;;;;3.00;2.80;;;4.70;85.50;;;;;;4962179;28;20494;-45
2021/12/25 14:09:58;;;;;;;3.17;2.97;;;4.60;85.10;;;;;;4961668;28;20920;-45
2021/12/25 14:12:28;;;;;;;4.30;2.80;;;4.60;85.00;;;;;;4963842;28;20466;-45
2021/12/25 14:14:56;;;;;;;12.37;6.30;;;4.60;85.00;;;;;;4961380;28;20806;-46
2021/12/25 14:17:23;;;;;;;7.77;5.23;;;4.50;85.10;;;;;;4962142;28;20482;-45
2021/12/25 14:20:12;;;;;;;12.90;7.27;;;4.50;85.30;;;;;;4963557;28;20903;-45
2021/12/25 14:22:42;;;;;;;5.53;5.00;;;4.50;85.20;;;;;;4963336;28;20470;-45
2021/12/25 14:25:27;;;;;;;9.47;5.50;;;4.50;85.00;;;;;;4962115;28;21537;-45
2021/12/25 14:28:08;;;;;;;6.57;5.27;;;4.50;85.10;;;;;;4963262;28;21146;-45
2021/12/25 14:30:43;;;;;;;5.03;4.63;;;4.40;84.40;;;;;;4962354;28;20602;-45
2021/12/25 14:33:16;;;;;;;5.53;5.13;;;4.40;84.60;;;;;;4958881;28;20476;-45